createdAt,value
2024-01-25T00:00:04.260Z,12.80
2024-01-25T00:01:07.923Z,12.07
2024-01-25T00:02:11.003Z,13.06
2024-01-25T00:03:13.936Z,10.60
2024-01-25T00:04:16.765Z,15.00
2024-01-25T00:05:19.999Z,12.69
2024-01-25T00:06:23.115Z,12.15
2024-01-25T00:07:26.036Z,12.93
2024-01-25T00:08:28.958Z,12.23
2024-01-25T00:09:32.061Z,13.21
2024-01-25T00:10:34.880Z,14.65
2024-01-25T00:11:37.709Z,13.61
2024-01-25T00:12:41.771Z,12.68
2024-01-25T00:13:44.579Z,13.17
2024-01-25T00:14:47.504Z,14.30
2024-01-25T00:15:50.535Z,13.83
2024-01-25T00:16:53.508Z,12.44
2024-01-25T00:17:57.921Z,13.97
2024-01-25T00:19:01.072Z,13.49
2024-01-25T00:20:05.452Z,12.92
2024-01-25T00:21:08.607Z,13.70
2024-01-25T00:22:11.467Z,12.90
2024-01-25T00:23:14.260Z,14.29
2024-01-25T00:24:17.034Z,13.15
2024-01-25T00:25:20.025Z,14.67
2024-01-25T00:26:23.111Z,14.15
2024-01-25T00:27:25.855Z,12.94
2024-01-25T00:28:30.355Z,12.19
2024-01-25T00:29:35.485Z,12.32
2024-01-25T00:30:38.538Z,14.21
2024-01-25T00:31:45.449Z,12.40
2024-01-25T00:32:49.542Z,13.18
2024-01-25T00:33:52.837Z,13.61
2024-01-25T00:34:56.214Z,13.33
2024-01-25T00:35:59.625Z,13.25
2024-01-25T00:37:03.050Z,12.65
2024-01-25T00:38:06.217Z,13.29
2024-01-25T00:39:09.365Z,13.75
2024-01-25T00:40:14.609Z,13.22
2024-01-25T00:41:20.215Z,12.70
2024-01-25T00:42:25.080Z,11.83
2024-01-25T00:43:28.280Z,12.35
2024-01-25T00:44:31.344Z,13.60
2024-01-25T00:45:34.872Z,13.49
2024-01-25T00:46:37.968Z,13.30
2024-01-25T00:47:41.143Z,11.73
2024-01-25T00:48:44.420Z,12.50
2024-01-25T00:49:48.030Z,13.02
2024-01-25T00:50:51.177Z,13.54
2024-01-25T00:52:01.412Z,14.02
2024-01-25T00:53:04.476Z,15.32
2024-01-25T00:54:07.631Z,13.74
2024-01-25T00:55:12.054Z,13.20
2024-01-25T00:56:15.313Z,11.82
2024-01-25T00:57:18.709Z,12.72
2024-01-25T00:58:21.860Z,13.95
2024-01-25T00:59:24.916Z,13.25
2024-01-25T01:00:28.140Z,14.48
2024-01-25T01:01:32.396Z,15.34
2024-01-25T01:02:43.965Z,14.78
2024-01-25T01:03:53.297Z,15.09
2024-01-25T01:04:56.805Z,13.24
2024-01-25T01:06:00.282Z,13.63
2024-01-25T01:07:03.722Z,13.16
2024-01-25T01:08:07.232Z,13.03
2024-01-25T01:09:10.187Z,12.86
2024-01-25T01:10:13.227Z,13.10
2024-01-25T01:11:16.109Z,14.13
2024-01-25T01:12:19.008Z,14.92
2024-01-25T01:13:22.082Z,15.17
2024-01-25T01:14:24.847Z,14.58
2024-01-25T01:15:27.757Z,15.04
2024-01-25T01:16:33.912Z,13.98
2024-01-25T01:17:36.749Z,12.92
2024-01-25T01:18:39.898Z,14.09
2024-01-25T01:19:43.104Z,14.65
2024-01-25T01:20:45.903Z,15.79
2024-01-25T01:21:48.737Z,15.37
2024-01-25T01:22:53.592Z,15.17
2024-01-25T01:23:56.371Z,14.71
2024-01-25T01:24:59.242Z,14.54
2024-01-25T01:26:02.158Z,13.73
2024-01-25T01:27:05.007Z,13.69
2024-01-25T01:28:08.103Z,13.44
2024-01-25T01:29:11.247Z,12.57
2024-01-25T01:30:14.043Z,13.37
2024-01-25T01:31:17.142Z,13.58
2024-01-25T01:32:20.040Z,13.40
2024-01-25T01:33:23.087Z,15.14
2024-01-25T01:34:26.301Z,12.75
2024-01-25T01:35:29.224Z,14.05
2024-01-25T01:36:32.253Z,14.13
2024-01-25T01:37:35.137Z,14.59
2024-01-25T01:38:38.033Z,14.34
2024-01-25T01:39:40.945Z,14.72
2024-01-25T01:40:46.535Z,14.25
2024-01-25T01:41:50.108Z,13.79
2024-01-25T01:42:59.686Z,12.57
2024-01-25T01:44:02.790Z,13.27
2024-01-25T01:45:06.121Z,13.98
2024-01-25T01:46:36.192Z,12.74
2024-01-25T01:47:39.132Z,14.80
2024-01-25T01:48:43.273Z,12.05
2024-01-25T01:49:46.726Z,13.22
2024-01-25T01:50:49.735Z,12.89
2024-01-25T01:51:53.966Z,13.99
2024-01-25T01:52:56.960Z,15.01
2024-01-25T01:54:02.911Z,14.82
2024-01-25T01:55:07.411Z,14.09
2024-01-25T01:56:11.290Z,12.90
2024-01-25T01:57:14.669Z,13.26
2024-01-25T01:58:21.749Z,13.87
2024-01-25T01:59:26.910Z,13.78
2024-01-25T02:00:31.796Z,12.96
2024-01-25T02:01:36.894Z,14.56
2024-01-25T02:02:39.857Z,13.42
2024-01-25T02:03:42.794Z,16.47
2024-01-25T02:04:45.973Z,11.95
2024-01-25T02:05:49.022Z,11.87
2024-01-25T02:06:51.916Z,11.47
2024-01-25T02:07:55.450Z,12.46
2024-01-25T02:09:00.456Z,13.43
2024-01-25T02:10:03.411Z,12.92
2024-01-25T02:11:06.356Z,12.24
2024-01-25T02:12:09.291Z,12.81
2024-01-25T02:13:12.305Z,12.08
2024-01-25T02:14:15.340Z,12.06
2024-01-25T02:15:18.275Z,12.80
2024-01-25T02:16:21.664Z,11.73
2024-01-25T02:17:24.896Z,12.58
2024-01-25T02:18:28.269Z,13.00
2024-01-25T02:19:31.252Z,12.54
2024-01-25T02:20:34.150Z,13.17
2024-01-25T02:21:36.937Z,12.35
2024-01-25T02:22:39.965Z,11.82
2024-01-25T02:23:42.897Z,15.24
2024-01-25T02:24:45.914Z,13.11
2024-01-25T02:25:49.116Z,13.42
2024-01-25T02:26:51.898Z,11.30
2024-01-25T02:27:55.720Z,12.77
2024-01-25T02:28:58.898Z,12.60
2024-01-25T02:30:01.792Z,13.08
2024-01-25T02:31:05.262Z,12.15
2024-01-25T02:32:08.160Z,14.13
2024-01-25T02:33:11.005Z,11.65
2024-01-25T02:34:14.472Z,11.29
2024-01-25T02:35:17.621Z,14.48
2024-01-25T02:36:23.624Z,12.27
2024-01-25T02:37:26.389Z,12.73
2024-01-25T02:38:29.218Z,11.60
2024-01-25T02:39:32.193Z,10.90
2024-01-25T02:40:35.182Z,12.19
2024-01-25T02:41:37.952Z,12.48
2024-01-25T02:42:40.803Z,12.22
2024-01-25T02:43:43.563Z,12.73
2024-01-25T02:44:46.668Z,12.84
2024-01-25T02:45:49.937Z,11.66
2024-01-25T02:46:53.640Z,11.47
2024-01-25T02:47:57.771Z,12.19
2024-01-25T02:49:01.836Z,13.14
2024-01-25T02:50:05.369Z,13.52
2024-01-25T02:51:08.283Z,12.78
2024-01-25T02:52:11.138Z,13.12
2024-01-25T02:53:13.927Z,12.89
2024-01-25T02:54:16.691Z,12.57
2024-01-25T02:55:22.051Z,11.85
2024-01-25T02:56:24.914Z,12.23
2024-01-25T02:57:27.810Z,11.64
2024-01-25T02:58:30.819Z,11.82
2024-01-25T02:59:33.619Z,11.52
2024-01-25T03:00:36.594Z,11.42
2024-01-25T03:01:42.252Z,11.94
2024-01-25T03:02:45.328Z,11.50
2024-01-25T03:03:48.461Z,11.53
2024-01-25T03:04:51.361Z,13.36
2024-01-25T03:05:54.723Z,11.85
2024-01-25T03:06:57.747Z,13.18
2024-01-25T03:08:00.606Z,12.25
2024-01-25T03:09:05.725Z,11.80
2024-01-25T03:10:09.037Z,11.48
2024-01-25T03:11:12.319Z,10.88
2024-01-25T03:12:15.105Z,10.55
2024-01-25T03:13:18.286Z,12.33
2024-01-25T03:14:21.373Z,11.97
2024-01-25T03:15:24.104Z,11.13
2024-01-25T03:16:27.201Z,11.64
2024-01-25T03:17:30.003Z,13.15
2024-01-25T03:18:32.979Z,12.06
2024-01-25T03:19:35.914Z,12.05
2024-01-25T03:20:38.760Z,12.52
2024-01-25T03:21:41.698Z,13.17
2024-01-25T03:22:44.516Z,12.59
2024-01-25T03:23:47.412Z,14.23
2024-01-25T03:24:50.297Z,13.76
2024-01-25T03:25:54.130Z,14.38
2024-01-25T03:26:57.049Z,13.70
2024-01-25T03:28:01.085Z,12.30
2024-01-25T03:29:04.069Z,11.43
2024-01-25T03:30:14.426Z,11.13
2024-01-25T03:31:17.485Z,11.14
2024-01-25T03:32:20.357Z,11.03
2024-01-25T03:33:23.266Z,11.32
2024-01-25T03:34:26.341Z,12.39
2024-01-25T03:35:29.259Z,10.92
2024-01-25T03:36:32.874Z,10.92
2024-01-25T03:37:35.794Z,11.32
2024-01-25T03:38:38.554Z,13.01
2024-01-25T03:39:41.485Z,12.97
2024-01-25T03:40:45.678Z,13.00
2024-01-25T03:41:48.675Z,13.36
2024-01-25T03:43:03.001Z,12.72
2024-01-25T03:44:14.727Z,13.19
2024-01-25T03:45:17.591Z,12.76
2024-01-25T03:46:20.533Z,12.62
2024-01-25T03:47:23.418Z,11.98
2024-01-25T03:48:26.219Z,11.13
2024-01-25T03:49:29.309Z,10.82
2024-01-25T03:50:32.206Z,12.42
2024-01-25T03:51:35.180Z,12.39
2024-01-25T03:52:38.078Z,12.95
2024-01-25T03:53:43.008Z,12.57
2024-01-25T03:54:45.877Z,13.70
2024-01-25T03:55:50.117Z,12.24
2024-01-25T03:56:53.641Z,12.59
2024-01-25T03:57:56.566Z,14.30
2024-01-25T03:59:00.050Z,14.40
2024-01-25T04:00:04.268Z,15.90
2024-01-25T04:01:08.447Z,17.75
2024-01-25T04:02:12.321Z,16.16
2024-01-25T04:03:15.540Z,14.29
2024-01-25T04:04:18.612Z,16.62
2024-01-25T04:05:21.935Z,16.28
2024-01-25T04:06:24.934Z,16.43
2024-01-25T04:07:27.888Z,14.45
2024-01-25T04:08:30.713Z,16.35
2024-01-25T04:09:33.569Z,16.68
2024-01-25T04:10:36.390Z,13.23
2024-01-25T04:11:39.487Z,13.77
2024-01-25T04:12:42.315Z,13.53
2024-01-25T04:13:45.094Z,16.27
2024-01-25T04:14:48.110Z,14.43
2024-01-25T04:15:51.044Z,15.07
2024-01-25T04:16:53.995Z,13.95
2024-01-25T04:17:57.331Z,13.92
2024-01-25T04:19:00.534Z,13.65
2024-01-25T04:20:04.358Z,15.07
2024-01-25T04:21:07.383Z,14.22
2024-01-25T04:22:10.400Z,15.55
2024-01-25T04:23:13.194Z,15.64
2024-01-25T04:24:16.203Z,15.64
2024-01-25T04:25:19.193Z,15.45
2024-01-25T04:26:22.168Z,14.58
2024-01-25T04:27:25.079Z,15.35
2024-01-25T04:28:27.903Z,15.10
2024-01-25T04:29:30.830Z,15.02
2024-01-25T04:30:34.036Z,13.86
2024-01-25T04:31:45.159Z,13.00
2024-01-25T04:32:48.099Z,14.55
2024-01-25T04:33:51.189Z,14.80
2024-01-25T04:34:54.258Z,12.03
2024-01-25T04:35:57.201Z,13.43
2024-01-25T04:37:00.237Z,13.20
2024-01-25T04:38:03.059Z,14.34
2024-01-25T04:39:06.591Z,14.17
2024-01-25T04:40:09.857Z,12.88
2024-01-25T04:41:12.647Z,13.91
2024-01-25T04:42:15.728Z,13.64
2024-01-25T04:43:18.654Z,13.97
2024-01-25T04:44:21.448Z,14.97
2024-01-25T04:45:24.218Z,14.00
2024-01-25T04:46:27.888Z,14.65
2024-01-25T04:47:31.158Z,15.55
2024-01-25T04:48:52.521Z,14.57
2024-01-25T04:49:55.710Z,13.99
2024-01-25T04:51:09.542Z,13.42
2024-01-25T04:52:30.711Z,13.25
2024-01-25T04:53:34.105Z,13.90
2024-01-25T04:54:37.022Z,13.86
2024-01-25T04:55:40.018Z,12.22
2024-01-25T04:56:43.924Z,12.10
2024-01-25T04:57:47.029Z,12.46
2024-01-25T04:58:49.874Z,14.18
2024-01-25T04:59:52.810Z,12.60
2024-01-25T05:00:56.591Z,14.10
2024-01-25T05:02:00.632Z,13.30
2024-01-25T05:03:03.781Z,13.93
2024-01-25T05:04:06.952Z,14.27
2024-01-25T05:05:24.931Z,14.48
2024-01-25T05:06:27.926Z,13.60
2024-01-25T05:07:31.446Z,11.42
2024-01-25T05:08:34.531Z,14.11
2024-01-25T05:09:37.439Z,14.80
2024-01-25T05:10:40.200Z,14.74
2024-01-25T05:11:43.167Z,14.36
2024-01-25T05:12:46.232Z,13.21
2024-01-25T05:13:52.189Z,12.95
2024-01-25T05:14:55.075Z,15.00
2024-01-25T05:15:57.993Z,13.89
2024-01-25T05:17:01.070Z,14.07
2024-01-25T05:18:06.062Z,13.96
2024-01-25T05:19:09.186Z,12.72
2024-01-25T05:20:13.613Z,12.39
2024-01-25T05:21:16.840Z,14.44
2024-01-25T05:22:20.179Z,13.03
2024-01-25T05:23:23.238Z,11.98
2024-01-25T05:24:26.718Z,11.23
2024-01-25T05:25:30.252Z,13.16
2024-01-25T05:26:33.483Z,12.38
2024-01-25T05:27:36.462Z,13.04
2024-01-25T05:28:39.440Z,10.88
2024-01-25T05:29:42.516Z,10.90
2024-01-25T05:30:45.617Z,12.41
2024-01-25T05:31:49.735Z,12.68
2024-01-25T05:32:56.261Z,12.74
2024-01-25T05:33:59.597Z,12.30
2024-01-25T05:35:02.702Z,12.80
2024-01-25T05:36:05.594Z,13.37
2024-01-25T05:37:08.536Z,14.09
2024-01-25T05:38:12.049Z,13.07
2024-01-25T05:39:16.114Z,12.33
2024-01-25T05:40:20.272Z,13.76
2024-01-25T05:41:23.338Z,14.10
2024-01-25T05:42:26.381Z,13.38
2024-01-25T05:43:29.254Z,13.20
2024-01-25T05:44:32.531Z,12.14
2024-01-25T05:45:35.629Z,13.65
2024-01-25T05:46:38.514Z,12.00
2024-01-25T05:47:41.679Z,12.91
2024-01-25T05:48:44.975Z,11.48
2024-01-25T05:49:48.248Z,11.32
2024-01-25T05:50:51.246Z,11.15
2024-01-25T05:51:54.015Z,9.63
2024-01-25T05:53:00.471Z,9.54
2024-01-25T05:54:03.575Z,10.70
2024-01-25T05:55:07.208Z,10.93
2024-01-25T05:56:10.438Z,9.39
2024-01-25T05:57:13.239Z,10.49
2024-01-25T05:58:16.093Z,10.94
2024-01-25T05:59:19.003Z,10.51
2024-01-25T06:00:22.188Z,11.25
2024-01-25T06:01:25.110Z,10.68
2024-01-25T06:02:28.059Z,11.91
2024-01-25T06:03:31.373Z,11.60
2024-01-25T06:04:34.436Z,11.25
2024-01-25T06:05:37.753Z,11.41
2024-01-25T06:06:40.846Z,11.65
2024-01-25T06:07:43.975Z,12.98
2024-01-25T06:08:52.225Z,10.13
2024-01-25T06:10:01.607Z,11.82
2024-01-25T06:11:04.551Z,11.41
2024-01-25T06:12:07.614Z,11.05
2024-01-25T06:13:10.655Z,13.87
2024-01-25T06:14:13.822Z,12.15
2024-01-25T06:15:16.728Z,10.72
2024-01-25T06:16:19.949Z,9.96
2024-01-25T06:17:22.910Z,9.80
2024-01-25T06:18:26.766Z,10.36
2024-01-25T06:19:29.910Z,9.43
2024-01-25T06:20:32.984Z,10.02
2024-01-25T06:21:36.803Z,10.82
2024-01-25T06:22:39.603Z,9.64
2024-01-25T06:23:42.388Z,9.86
2024-01-25T06:24:45.317Z,10.48
2024-01-25T06:25:48.137Z,10.41
2024-01-25T06:26:51.040Z,10.50
2024-01-25T06:27:53.928Z,11.22
2024-01-25T06:28:57.903Z,11.31
2024-01-25T06:30:00.906Z,10.53
2024-01-25T06:31:03.794Z,11.88
2024-01-25T06:32:11.195Z,11.18
2024-01-25T06:33:16.869Z,12.27
2024-01-25T06:34:19.989Z,11.89
2024-01-25T06:35:23.220Z,12.51
2024-01-25T06:36:26.161Z,10.52
2024-01-25T06:37:29.250Z,11.46
2024-01-25T06:38:32.102Z,11.40
2024-01-25T06:39:35.829Z,11.91
2024-01-25T06:40:39.528Z,12.55
2024-01-25T06:41:43.038Z,11.83
2024-01-25T06:42:46.160Z,10.44
2024-01-25T06:43:49.027Z,10.73
2024-01-25T06:44:52.100Z,9.94
2024-01-25T06:45:54.946Z,11.52
2024-01-25T06:46:57.854Z,11.58
2024-01-25T06:48:00.693Z,11.49
2024-01-25T06:49:04.238Z,11.54
2024-01-25T06:50:08.189Z,10.86
2024-01-25T06:51:11.078Z,11.00
2024-01-25T06:52:13.907Z,10.85
2024-01-25T06:53:17.280Z,9.89
2024-01-25T06:54:20.060Z,10.10
2024-01-25T06:55:23.148Z,11.61
2024-01-25T06:56:25.977Z,11.90
2024-01-25T06:57:28.717Z,11.28
2024-01-25T06:58:31.973Z,11.70
2024-01-25T06:59:35.251Z,12.32
2024-01-25T07:00:40.011Z,11.74
2024-01-25T07:01:43.474Z,12.99
2024-01-25T07:02:46.758Z,11.07
2024-01-25T07:03:54.223Z,13.33
2024-01-25T07:04:58.214Z,12.62
2024-01-25T07:06:01.918Z,12.53
2024-01-25T07:07:05.202Z,11.90
2024-01-25T07:08:10.133Z,9.35
2024-01-25T07:09:17.253Z,12.53
2024-01-25T07:10:20.266Z,12.70
2024-01-25T07:11:23.519Z,12.98
2024-01-25T07:12:26.324Z,12.07
2024-01-25T07:13:29.300Z,11.27
2024-01-25T07:14:32.071Z,10.91
2024-01-25T07:15:35.224Z,10.41
2024-01-25T07:16:39.570Z,11.66
2024-01-25T07:17:42.488Z,11.66
2024-01-25T07:18:45.441Z,11.37
2024-01-25T07:19:48.545Z,12.91
2024-01-25T07:20:52.192Z,12.27
2024-01-25T07:21:55.062Z,11.45
2024-01-25T07:22:58.039Z,12.44
2024-01-25T07:24:07.550Z,13.29
2024-01-25T07:25:10.512Z,11.50
2024-01-25T07:26:18.642Z,10.52
2024-01-25T07:27:21.514Z,11.55
2024-01-25T07:28:24.336Z,11.00
2024-01-25T07:29:30.259Z,11.25
2024-01-25T07:30:33.490Z,11.35
2024-01-25T07:31:36.469Z,12.19
2024-01-25T07:32:42.527Z,12.08
2024-01-25T07:33:45.476Z,11.53
2024-01-25T07:34:48.657Z,12.80
2024-01-25T07:35:51.696Z,13.15
2024-01-25T07:36:54.807Z,11.40
2024-01-25T07:37:57.575Z,12.95
2024-01-25T07:39:00.561Z,12.70
2024-01-25T07:40:06.515Z,12.57
2024-01-25T07:41:09.417Z,11.67
2024-01-25T07:42:13.306Z,11.62
2024-01-25T07:43:16.307Z,11.50
2024-01-25T07:44:20.474Z,10.08
2024-01-25T07:45:23.490Z,10.67
2024-01-25T07:46:26.469Z,10.14
2024-01-25T07:47:29.237Z,11.21
2024-01-25T07:48:33.068Z,11.74
2024-01-25T07:49:36.265Z,11.49
2024-01-25T07:50:39.436Z,11.49
2024-01-25T07:51:42.328Z,12.60
2024-01-25T07:52:45.344Z,12.73
2024-01-25T07:53:48.123Z,10.98
2024-01-25T07:54:51.059Z,10.86
2024-01-25T07:55:54.494Z,10.70
2024-01-25T07:56:57.280Z,11.76
2024-01-25T07:58:00.232Z,10.77
2024-01-25T07:59:03.085Z,20.73
2024-01-25T08:00:06.596Z,12.96
2024-01-25T08:01:10.713Z,11.10
2024-01-25T08:02:14.723Z,8.99
2024-01-25T08:03:18.647Z,9.00
2024-01-25T08:04:21.805Z,9.46
2024-01-25T08:05:33.757Z,9.62
2024-01-25T08:06:41.116Z,11.22
2024-01-25T08:07:46.032Z,9.50
2024-01-25T08:08:49.085Z,9.93
2024-01-25T08:09:53.955Z,9.59
2024-01-25T08:10:57.086Z,9.95
2024-01-25T08:12:00.000Z,10.46
2024-01-25T08:13:07.278Z,10.20
2024-01-25T08:14:10.999Z,10.83
2024-01-25T08:15:14.528Z,10.83
2024-01-25T08:16:21.383Z,9.06
2024-01-25T08:17:24.407Z,11.54
2024-01-25T08:18:30.632Z,10.81
2024-01-25T08:19:33.832Z,10.99
2024-01-25T08:20:39.380Z,10.84
2024-01-25T08:21:42.797Z,11.77
2024-01-25T08:22:45.684Z,11.40
2024-01-25T08:23:48.870Z,11.09
2024-01-25T08:24:51.689Z,11.48
2024-01-25T08:25:55.048Z,12.57
2024-01-25T08:26:57.937Z,12.94
2024-01-25T08:28:01.443Z,11.58
2024-01-25T08:29:04.527Z,11.09
2024-01-25T08:30:08.113Z,11.75
2024-01-25T08:31:11.652Z,10.92
2024-01-25T08:32:14.508Z,11.84
2024-01-25T08:33:17.635Z,10.55
2024-01-25T08:34:22.536Z,11.04
2024-01-25T08:35:25.641Z,11.93
2024-01-25T08:36:28.498Z,9.42
2024-01-25T08:37:31.257Z,11.17
2024-01-25T08:38:34.959Z,11.20
2024-01-25T08:39:37.950Z,11.35
2024-01-25T08:40:40.983Z,11.17
2024-01-25T08:41:43.813Z,11.87
2024-01-25T08:42:47.139Z,11.75
2024-01-25T08:43:50.081Z,10.35
2024-01-25T08:44:52.975Z,11.20
2024-01-25T08:45:55.978Z,11.44
2024-01-25T08:46:58.926Z,11.92
2024-01-25T08:48:02.030Z,10.92
2024-01-25T08:49:09.757Z,10.74
2024-01-25T08:50:13.319Z,11.59
2024-01-25T08:51:16.687Z,12.00
2024-01-25T08:52:19.529Z,10.27
2024-01-25T08:53:24.170Z,10.57
2024-01-25T08:54:27.013Z,11.56
2024-01-25T08:55:30.158Z,10.97
2024-01-25T08:56:33.001Z,9.96
2024-01-25T08:57:36.622Z,8.64
2024-01-25T08:58:39.845Z,9.42
2024-01-25T08:59:42.694Z,10.84
2024-01-25T09:00:45.700Z,10.72
2024-01-25T09:01:48.874Z,11.76
2024-01-25T09:02:52.135Z,12.35
2024-01-25T09:03:55.339Z,11.36
2024-01-25T09:04:59.044Z,11.91
2024-01-25T09:06:06.642Z,12.84
2024-01-25T09:07:10.529Z,11.23
2024-01-25T09:08:14.752Z,11.22
2024-01-25T09:09:17.580Z,11.53
2024-01-25T09:10:20.561Z,12.92
2024-01-25T09:11:23.616Z,13.01
2024-01-25T09:12:26.546Z,11.98
2024-01-25T09:13:29.644Z,11.21
2024-01-25T09:14:33.547Z,12.16
2024-01-25T09:15:36.523Z,11.75
2024-01-25T09:16:39.830Z,12.61
2024-01-25T09:17:43.096Z,12.47
2024-01-25T09:18:46.304Z,9.85
2024-01-25T09:19:54.020Z,11.79
2024-01-25T09:20:57.255Z,10.48
2024-01-25T09:22:05.823Z,11.66
2024-01-25T09:23:08.854Z,12.10
2024-01-25T09:24:12.005Z,10.33
2024-01-25T09:25:14.899Z,11.38
2024-01-25T09:26:18.073Z,12.56
2024-01-25T09:27:20.869Z,12.62
2024-01-25T09:28:24.314Z,12.10
2024-01-25T09:29:27.628Z,12.88
2024-01-25T09:30:31.862Z,11.93
2024-01-25T09:31:35.193Z,10.75
2024-01-25T09:32:38.235Z,10.87
2024-01-25T09:33:42.598Z,11.78
2024-01-25T09:34:46.368Z,10.34
2024-01-25T09:35:50.154Z,12.14
2024-01-25T09:36:54.128Z,13.03
2024-01-25T09:37:57.204Z,12.91
2024-01-25T09:39:00.463Z,12.31
2024-01-25T09:40:05.438Z,12.01
2024-01-25T09:41:09.094Z,13.06
2024-01-25T09:42:13.304Z,14.46
2024-01-25T09:43:16.379Z,12.85
2024-01-25T09:44:21.178Z,12.18
2024-01-25T09:45:25.447Z,12.59
2024-01-25T09:46:29.261Z,12.47
2024-01-25T09:47:32.437Z,11.11
2024-01-25T09:48:37.213Z,13.41
2024-01-25T09:49:41.153Z,13.98
2024-01-25T09:50:47.955Z,14.28
2024-01-25T09:51:52.798Z,13.25
2024-01-25T09:53:00.887Z,13.81
2024-01-25T09:54:05.758Z,13.72
2024-01-25T09:55:09.137Z,12.16
2024-01-25T09:56:16.581Z,11.98
2024-01-25T09:57:25.109Z,17.97
2024-01-25T09:58:48.995Z,12.94
2024-01-25T09:59:52.042Z,9.23
2024-01-25T10:00:55.146Z,9.86
2024-01-25T10:02:00.588Z,11.14
2024-01-25T10:03:04.192Z,11.76
2024-01-25T10:04:10.380Z,10.79
2024-01-25T10:05:13.293Z,12.25
2024-01-25T10:06:17.958Z,12.69
2024-01-25T10:07:43.152Z,11.70
2024-01-25T10:08:46.907Z,12.73
2024-01-25T10:09:49.733Z,13.38
2024-01-25T10:10:54.474Z,13.57
2024-01-25T10:12:10.437Z,13.97
2024-01-25T10:13:21.263Z,13.23
2024-01-25T10:14:24.615Z,13.15
2024-01-25T10:15:28.368Z,12.95
2024-01-25T10:16:32.348Z,13.64
2024-01-25T10:17:52.696Z,13.02
2024-01-25T10:18:59.535Z,12.90
2024-01-25T10:20:12.497Z,14.37
2024-01-25T10:21:17.917Z,12.67
2024-01-25T10:22:21.691Z,13.32
2024-01-25T10:23:26.829Z,11.79
2024-01-25T10:24:30.602Z,10.39
2024-01-25T10:25:36.042Z,10.79
2024-01-25T10:26:43.151Z,11.33
2024-01-25T10:27:46.676Z,10.04
2024-01-25T10:28:58.019Z,10.56
2024-01-25T10:30:07.875Z,11.14
2024-01-25T10:31:11.314Z,11.04
2024-01-25T10:32:15.294Z,13.41
2024-01-25T10:33:19.421Z,14.49
2024-01-25T10:34:26.414Z,12.87
2024-01-25T10:35:30.678Z,12.74
2024-01-25T10:36:35.753Z,11.51
2024-01-25T10:37:41.978Z,13.34
2024-01-25T10:38:48.792Z,11.06
2024-01-25T10:39:52.680Z,10.88
2024-01-25T10:41:06.921Z,11.42
2024-01-25T10:42:10.497Z,12.67
2024-01-25T10:43:13.493Z,13.57
2024-01-25T10:44:20.415Z,12.15
2024-01-25T10:45:24.212Z,10.63
2024-01-25T10:46:28.359Z,11.62
2024-01-25T10:47:36.603Z,11.87
2024-01-25T10:48:40.802Z,13.14
2024-01-25T10:49:48.326Z,11.51
2024-01-25T10:50:51.704Z,11.33
2024-01-25T10:51:54.951Z,11.82
2024-01-25T10:52:59.659Z,11.43
2024-01-25T10:54:03.377Z,10.14
2024-01-25T10:55:09.197Z,10.47
2024-01-25T10:56:12.850Z,10.79
2024-01-25T10:57:15.751Z,11.14
2024-01-25T10:58:18.759Z,12.42
2024-01-25T10:59:22.631Z,13.23
2024-01-25T11:00:25.533Z,12.03
2024-01-25T11:01:29.099Z,11.04
2024-01-25T11:02:32.279Z,11.14
2024-01-25T11:03:36.206Z,11.74
2024-01-25T11:04:39.137Z,11.49
2024-01-25T11:05:43.405Z,11.29
2024-01-25T11:06:47.285Z,10.89
2024-01-25T11:07:52.243Z,12.77
2024-01-25T11:09:10.208Z,12.02
2024-01-25T11:10:17.098Z,10.34
2024-01-25T11:11:22.120Z,12.27
2024-01-25T11:12:25.183Z,11.77
2024-01-25T11:13:28.648Z,11.41
2024-01-25T11:14:32.497Z,9.77
2024-01-25T11:15:37.012Z,11.05
2024-01-25T11:16:43.525Z,11.99
2024-01-25T11:17:54.364Z,11.79
2024-01-25T11:19:08.335Z,11.33
2024-01-25T11:20:15.369Z,11.61
2024-01-25T11:21:39.474Z,10.45
2024-01-25T11:22:46.381Z,8.93
2024-01-25T11:23:49.217Z,9.49
2024-01-25T11:24:52.299Z,10.26
2024-01-25T11:25:56.038Z,11.04
2024-01-25T11:27:01.944Z,9.97
2024-01-25T11:28:06.911Z,9.88
2024-01-25T11:29:09.785Z,11.17
2024-01-25T11:30:14.516Z,12.82
2024-01-25T11:31:17.696Z,10.53
2024-01-25T11:32:20.822Z,10.54
2024-01-25T11:33:24.919Z,10.47
2024-01-25T11:34:27.955Z,9.74
2024-01-25T11:35:31.262Z,10.41
2024-01-25T11:36:34.611Z,10.17
2024-01-25T11:37:38.234Z,10.21
2024-01-25T11:38:41.217Z,10.01
2024-01-25T11:39:44.698Z,10.54
2024-01-25T11:40:47.708Z,10.36
2024-01-25T11:41:53.085Z,12.24
2024-01-25T11:42:56.466Z,10.64
2024-01-25T11:43:59.541Z,10.43
2024-01-25T11:45:02.504Z,11.31
2024-01-25T11:46:05.508Z,12.24
2024-01-25T11:47:09.120Z,10.87
2024-01-25T11:48:12.567Z,11.19
2024-01-25T11:49:16.079Z,10.46
2024-01-25T11:50:19.653Z,10.54
2024-01-25T11:51:23.975Z,11.34
2024-01-25T11:52:30.235Z,9.22
2024-01-25T11:53:34.103Z,10.00
2024-01-25T11:54:37.076Z,12.25
2024-01-25T11:55:39.909Z,10.28
2024-01-25T11:56:44.581Z,9.56
2024-01-25T11:57:48.085Z,10.85
2024-01-25T11:58:51.981Z,10.27
2024-01-25T11:59:57.857Z,11.39
2024-01-25T12:01:01.197Z,8.85
2024-01-25T12:02:05.185Z,8.13
2024-01-25T12:03:08.876Z,8.51
2024-01-25T12:04:11.989Z,8.76
2024-01-25T12:05:15.748Z,9.47
2024-01-25T12:06:19.990Z,8.88
2024-01-25T12:07:23.077Z,10.02
2024-01-25T12:08:26.220Z,10.17
2024-01-25T12:09:33.933Z,10.88
2024-01-25T12:10:37.185Z,11.19
2024-01-25T12:11:42.408Z,12.24
2024-01-25T12:12:45.721Z,9.49
2024-01-25T12:13:48.734Z,9.63
2024-01-25T12:14:53.349Z,8.80
2024-01-25T12:15:57.534Z,9.93
2024-01-25T12:17:00.336Z,8.95
2024-01-25T12:18:03.527Z,9.89
2024-01-25T12:19:07.264Z,9.81
2024-01-25T12:20:13.387Z,10.08
2024-01-25T12:21:16.498Z,10.03
2024-01-25T12:22:23.995Z,9.20
2024-01-25T12:23:38.084Z,10.13
2024-01-25T12:24:47.030Z,8.87
2024-01-25T12:25:56.391Z,9.46
2024-01-25T12:27:00.261Z,10.03
2024-01-25T12:28:05.742Z,8.45
2024-01-25T12:29:11.881Z,9.04
2024-01-25T12:30:14.818Z,9.32
2024-01-25T12:31:17.807Z,9.66
2024-01-25T12:32:21.735Z,9.04
2024-01-25T12:33:27.688Z,8.76
2024-01-25T12:34:33.809Z,8.49
2024-01-25T12:35:38.344Z,9.38
2024-01-25T12:36:41.407Z,8.91
2024-01-25T12:37:44.231Z,9.89
2024-01-25T12:38:47.398Z,10.22
2024-01-25T12:39:54.662Z,8.65
2024-01-25T12:40:58.142Z,9.83
2024-01-25T12:42:01.480Z,10.18
2024-01-25T12:43:04.831Z,11.75
2024-01-25T12:44:08.286Z,10.74
2024-01-25T12:45:11.284Z,9.19
2024-01-25T12:46:22.453Z,9.89
2024-01-25T12:47:30.275Z,10.52
2024-01-25T12:48:33.350Z,9.53
2024-01-25T12:49:36.616Z,9.97
2024-01-25T12:50:39.850Z,8.63
2024-01-25T12:51:43.487Z,9.63
2024-01-25T12:52:47.789Z,9.57
2024-01-25T12:53:51.437Z,9.89
2024-01-25T12:54:56.243Z,9.30
2024-01-25T12:55:59.246Z,10.24
2024-01-25T12:57:02.088Z,9.50
2024-01-25T12:58:05.502Z,8.23
2024-01-25T12:59:09.983Z,9.41
2024-01-25T13:00:13.169Z,8.90
2024-01-25T13:01:17.078Z,9.55
2024-01-25T13:02:20.721Z,9.37
2024-01-25T13:03:24.290Z,9.62
2024-01-25T13:04:28.365Z,7.96
2024-01-25T13:05:35.047Z,8.46
2024-01-25T13:06:38.929Z,7.47
2024-01-25T13:07:42.058Z,8.45
2024-01-25T13:08:45.216Z,7.76
2024-01-25T13:09:48.167Z,7.64
2024-01-25T13:10:51.236Z,8.46
2024-01-25T13:11:53.993Z,8.76
2024-01-25T13:12:56.811Z,9.15
2024-01-25T13:13:59.932Z,8.49
2024-01-25T13:15:03.612Z,8.32
2024-01-25T13:16:07.093Z,8.92
2024-01-25T13:17:10.264Z,7.72
2024-01-25T13:18:13.091Z,7.45
2024-01-25T13:19:16.288Z,10.03
2024-01-25T13:20:19.353Z,8.68
2024-01-25T13:21:22.222Z,8.52
2024-01-25T13:22:25.749Z,8.31
2024-01-25T13:23:28.498Z,10.55
2024-01-25T13:24:31.534Z,9.49
2024-01-25T13:25:34.436Z,9.35
2024-01-25T13:26:37.942Z,8.23
2024-01-25T13:27:40.851Z,8.20
2024-01-25T13:28:43.638Z,8.53
2024-01-25T13:29:46.612Z,8.37
2024-01-25T13:30:49.798Z,9.01
2024-01-25T13:31:52.823Z,9.34
2024-01-25T13:32:55.907Z,8.22
2024-01-25T13:33:59.051Z,8.79
2024-01-25T13:35:02.206Z,7.49
2024-01-25T13:36:09.853Z,7.77
2024-01-25T13:37:12.830Z,8.26
2024-01-25T13:38:17.443Z,8.96
2024-01-25T13:39:20.453Z,9.41
2024-01-25T13:40:23.386Z,10.07
2024-01-25T13:41:27.549Z,9.89
2024-01-25T13:42:30.378Z,9.31
2024-01-25T13:43:33.201Z,9.12
2024-01-25T13:44:36.276Z,8.02
2024-01-25T13:45:39.912Z,8.88
2024-01-25T13:46:42.813Z,9.54
2024-01-25T13:47:45.573Z,8.76
2024-01-25T13:48:48.995Z,8.83